createdAt,value
2023-02-27T00:02:26.514Z,102976.63
2023-02-27T00:04:54.489Z,102975.78
2023-02-27T00:07:26.120Z,102974.97
2023-02-27T00:09:53.239Z,102983.13
2023-02-27T00:12:19.869Z,102979.56
2023-02-27T00:14:46.385Z,102984.19
2023-02-27T00:17:12.879Z,102982.50
2023-02-27T00:19:39.397Z,102983.34
2023-02-27T00:22:05.898Z,102986.28
2023-02-27T00:24:32.396Z,102977.28
2023-02-27T00:26:58.950Z,102982.97
2023-02-27T00:29:25.442Z,102979.38
2023-02-27T00:31:52.046Z,102973.13
2023-02-27T00:34:18.659Z,102981.28
2023-02-27T00:36:45.178Z,102973.94
2023-02-27T00:39:11.676Z,102971.47
2023-02-27T00:41:38.173Z,102963.53
2023-02-27T00:44:04.878Z,102958.94
2023-02-27T00:46:31.543Z,102963.31
2023-02-27T00:48:58.051Z,102964.56
2023-02-27T00:51:24.886Z,102966.47
2023-02-27T00:53:51.661Z,102968.34
2023-02-27T00:56:18.195Z,102960.22
2023-02-27T00:58:44.697Z,102972.97
2023-02-27T01:01:11.415Z,102965.03
2023-02-27T01:03:38.056Z,102967.75
2023-02-27T01:06:05.011Z,102969.84
2023-02-27T01:08:31.502Z,102968.78
2023-02-27T01:10:58.052Z,102977.19
2023-02-27T01:13:24.662Z,102966.31
2023-02-27T01:15:51.651Z,102965.47
2023-02-27T01:18:18.478Z,102963.78
2023-02-27T01:20:44.960Z,102962.13
2023-02-27T01:23:11.613Z,102970.28
2023-02-27T01:25:38.434Z,102970.28
2023-02-27T01:28:05.157Z,102972.41
2023-02-27T01:30:31.692Z,102966.97
2023-02-27T01:32:58.244Z,102966.16
2023-02-27T01:35:24.806Z,102973.44
2023-02-27T01:37:51.321Z,102970.72
2023-02-27T01:40:18.071Z,102968.00
2023-02-27T01:42:46.690Z,102958.19
2023-02-27T01:45:13.196Z,102960.31
2023-02-27T01:47:44.241Z,102947.78
2023-02-27T01:50:12.096Z,102951.31
2023-02-27T01:52:41.224Z,102950.72
2023-02-27T01:55:08.786Z,102943.41
2023-02-27T01:57:36.539Z,102941.75
2023-02-27T02:00:04.610Z,102940.06
2023-02-27T02:02:37.780Z,102939.84
2023-02-27T02:05:07.350Z,102937.34
2023-02-27T02:07:36.368Z,102943.00
2023-02-27T02:10:03.364Z,102939.22
2023-02-27T02:12:33.985Z,102951.16
2023-02-27T02:15:00.413Z,102956.34
2023-02-27T02:17:45.515Z,102943.00
2023-02-27T02:20:56.638Z,102950.31
2023-02-27T02:23:52.809Z,102962.25
2023-02-27T02:26:33.534Z,102952.41
2023-02-27T02:29:37.347Z,102953.47
2023-02-27T02:32:22.653Z,102951.00
2023-02-27T02:35:32.111Z,102963.50
2023-02-27T02:38:13.699Z,102957.44
2023-02-27T02:40:53.757Z,102958.50
2023-02-27T02:43:30.413Z,102952.25
2023-02-27T02:46:03.241Z,102958.13
2023-02-27T02:48:55.769Z,102963.13
2023-02-27T02:51:28.638Z,102953.31
2023-02-27T02:54:02.370Z,102959.78
2023-02-27T02:56:54.502Z,102957.06
2023-02-27T02:59:30.312Z,102968.97
2023-02-27T03:02:03.475Z,102962.94
2023-02-27T03:05:11.181Z,102968.38
2023-02-27T03:07:47.506Z,102962.72
2023-02-27T03:10:20.228Z,102971.09
2023-02-27T03:12:52.622Z,102958.53
2023-02-27T03:15:25.524Z,102964.22
2023-02-27T03:18:01.318Z,102957.94
2023-02-27T03:20:53.069Z,102960.66
2023-02-27T03:23:30.256Z,102962.75
2023-02-27T03:25:58.510Z,102966.53
2023-02-27T03:28:31.006Z,102968.41
2023-02-27T03:31:10.643Z,102963.00
2023-02-27T03:33:52.612Z,102962.16
2023-02-27T03:36:44.589Z,102965.06
2023-02-27T03:39:46.309Z,102971.38
2023-02-27T03:42:45.576Z,102972.34
2023-02-27T03:45:20.846Z,102973.41
2023-02-27T03:47:47.405Z,102973.41
2023-02-27T03:50:14.085Z,102982.81
2023-02-27T03:52:41.015Z,102970.94
2023-02-27T03:55:16.931Z,102978.03
2023-02-27T03:57:46.476Z,102980.09
2023-02-27T04:00:17.191Z,102966.75
2023-02-27T04:02:45.895Z,102977.81
2023-02-27T04:05:12.802Z,102974.06
2023-02-27T04:07:45.048Z,102968.41
2023-02-27T04:10:19.204Z,102971.56
2023-02-27T04:13:03.283Z,102959.03
2023-02-27T04:15:47.831Z,102968.25
2023-02-27T04:18:42.063Z,102969.31
2023-02-27T04:21:20.146Z,102986.63
2023-02-27T04:23:53.441Z,102987.44
2023-02-27T04:26:42.824Z,102981.19
2023-02-27T04:29:15.177Z,102979.53
2023-02-27T04:31:58.796Z,102982.03
2023-02-27T04:34:47.772Z,102985.78
2023-02-27T04:37:24.167Z,102992.28
2023-02-27T04:40:01.252Z,102979.97
2023-02-27T04:42:32.083Z,102987.06
2023-02-27T04:45:02.684Z,102994.38
2023-02-27T04:47:30.895Z,103001.91
2023-02-27T04:50:05.200Z,102999.19
2023-02-27T04:52:34.722Z,102998.38
2023-02-27T04:55:17.601Z,103000.22
2023-02-27T04:57:53.579Z,103002.09
2023-02-27T05:00:24.152Z,103005.88
2023-02-27T05:02:53.198Z,103015.09
2023-02-27T05:05:25.540Z,103017.16
2023-02-27T05:08:01.756Z,103014.25
2023-02-27T05:10:32.482Z,103015.91
2023-02-27T05:13:05.872Z,103030.94
2023-02-27T05:15:43.206Z,103026.94
2023-02-27T05:18:12.938Z,103019.44
2023-02-27T05:21:06.522Z,103021.09
2023-02-27T05:23:48.961Z,103023.38
2023-02-27T05:26:22.119Z,103015.22
2023-02-27T05:29:03.121Z,103021.50
2023-02-27T05:31:47.085Z,103027.75
2023-02-27T05:34:42.340Z,103021.50
2023-02-27T05:37:16.583Z,103026.09
2023-02-27T05:39:46.143Z,103029.63
2023-02-27T05:42:28.713Z,103019.00
2023-02-27T05:45:08.815Z,103027.34
2023-02-27T05:47:39.757Z,103019.84
2023-02-27T05:50:21.799Z,103023.97
2023-02-27T05:52:51.477Z,103022.31
2023-02-27T05:55:24.138Z,103026.69
2023-02-27T05:57:59.559Z,103026.69
2023-02-27T06:00:40.887Z,103023.16
2023-02-27T06:03:07.812Z,103031.28
2023-02-27T06:05:37.022Z,103028.56
2023-02-27T06:08:03.579Z,103044.03
2023-02-27T06:10:30.231Z,103035.91
2023-02-27T06:12:56.796Z,103039.44
2023-02-27T06:15:23.362Z,103042.38
2023-02-27T06:17:49.874Z,103040.50
2023-02-27T06:20:16.612Z,103047.19
2023-02-27T06:22:43.083Z,103044.47
2023-02-27T06:25:10.010Z,103053.47
2023-02-27T06:27:36.925Z,103046.34
2023-02-27T06:30:07.491Z,103053.47
2023-02-27T06:32:34.028Z,103061.38
2023-02-27T06:35:00.527Z,103065.75
2023-02-27T06:37:27.107Z,103068.47
2023-02-27T06:39:53.612Z,103073.91
2023-02-27T06:42:20.140Z,103079.97
2023-02-27T06:44:46.628Z,103078.28
2023-02-27T06:47:13.192Z,103087.28
2023-02-27T06:49:39.695Z,103085.59
2023-02-27T06:52:06.224Z,103094.56
2023-02-27T06:54:33.362Z,103087.47
2023-02-27T06:57:00.275Z,103085.59
2023-02-27T06:59:27.323Z,103091.25
2023-02-27T07:01:54.174Z,103090.41
2023-02-27T07:04:20.798Z,103097.75
2023-02-27T07:07:33.840Z,103090.41
2023-02-27T07:09:34.313Z,103098.56
2023-02-27T07:12:01.717Z,103100.44
2023-02-27T07:14:28.447Z,103101.47
2023-02-27T07:16:55.065Z,103104.41
2023-02-27T07:19:23.386Z,103106.06
2023-02-27T07:21:50.087Z,103107.78
2023-02-27T07:24:16.787Z,103106.91
2023-02-27T07:26:43.324Z,103106.06
2023-02-27T07:29:09.940Z,103109.63
2023-02-27T07:31:36.596Z,103104.81
2023-02-27T07:34:03.478Z,103112.75
2023-02-27T07:36:31.542Z,103109.19
2023-02-27T07:38:58.422Z,103110.84
2023-02-27T07:41:30.593Z,103109.00
2023-02-27T07:43:57.813Z,103107.94
2023-02-27T07:46:27.286Z,103116.09
2023-02-27T07:48:54.803Z,103105.63
2023-02-27T07:51:21.860Z,103104.41
2023-02-27T07:53:48.401Z,103110.69
2023-02-27T07:56:15.209Z,103116.94
2023-02-27T07:58:41.761Z,103112.34
2023-02-27T08:01:08.341Z,103111.50
2023-02-27T08:03:34.847Z,103108.78
2023-02-27T08:06:02.409Z,103120.47
2023-02-27T08:08:29.723Z,103112.56
2023-02-27T08:10:56.436Z,103109.84
2023-02-27T08:13:42.448Z,103109.84
2023-02-27T08:16:09.884Z,103114.41
2023-02-27T08:18:36.689Z,103124.84
2023-02-27T08:21:05.158Z,103113.81
2023-02-27T08:23:32.733Z,103117.13
2023-02-27T08:25:59.274Z,103128.00
2023-02-27T08:28:26.611Z,103130.72
2023-02-27T08:30:53.735Z,103125.47
2023-02-27T08:33:20.578Z,103128.00
2023-02-27T08:35:47.151Z,103138.00
2023-02-27T08:38:13.682Z,103144.47
2023-02-27T08:40:40.229Z,103133.00
2023-02-27T08:43:06.829Z,103138.22
2023-02-27T08:45:33.382Z,103145.53
2023-02-27T08:47:59.922Z,103142.00
2023-02-27T08:50:26.396Z,103152.00
2023-02-27T08:52:52.971Z,103140.94
2023-02-27T08:55:19.969Z,103152.63
2023-02-27T08:57:46.463Z,103152.63
2023-02-27T09:00:14.709Z,103147.00
2023-02-27T09:02:41.686Z,103150.59
2023-02-27T09:05:08.750Z,103153.47
2023-02-27T09:07:35.325Z,103145.97
2023-02-27T09:10:01.878Z,103158.72
2023-02-27T09:12:28.385Z,103145.16
2023-02-27T09:14:54.869Z,103147.63
2023-02-27T09:17:22.009Z,103148.69
2023-02-27T09:19:49.281Z,103154.72
2023-02-27T09:22:15.773Z,103154.97
2023-02-27T09:24:42.268Z,103156.00
2023-02-27T09:27:08.817Z,103161.59
2023-02-27T09:29:35.673Z,103161.44
2023-02-27T09:32:02.312Z,103164.75
2023-02-27T09:34:29.661Z,103173.13
2023-02-27T09:36:59.519Z,103159.34
2023-02-27T09:39:26.581Z,103160.16
2023-02-27T09:42:11.883Z,103159.09
2023-02-27T09:44:47.076Z,103152.44
2023-02-27T09:47:32.070Z,103154.50
2023-02-27T09:50:18.454Z,103156.19
2023-02-27T09:52:45.228Z,103157.22
2023-02-27T09:55:23.507Z,103163.28
2023-02-27T09:58:01.514Z,103163.28
2023-02-27T10:00:45.552Z,103162.88
2023-02-27T10:03:24.324Z,103161.63
2023-02-27T10:06:27.100Z,103155.97
2023-02-27T10:09:05.325Z,103161.22
2023-02-27T10:12:19.003Z,103167.25
2023-02-27T10:15:00.420Z,103166.00
2023-02-27T10:17:34.704Z,103164.94
2023-02-27T10:20:06.951Z,103156.59
2023-02-27T10:22:43.263Z,103171.81
2023-02-27T10:25:30.238Z,103159.06
2023-02-27T10:28:09.063Z,103163.69
2023-02-27T10:30:36.012Z,103163.69
2023-02-27T10:33:42.833Z,103163.44
2023-02-27T10:36:20.575Z,103170.56
2023-02-27T10:39:00.715Z,103158.22
2023-02-27T10:41:28.652Z,103164.50
2023-02-27T10:43:58.714Z,103168.44
2023-02-27T10:46:29.837Z,103154.63
2023-02-27T10:49:00.330Z,103161.09
2023-02-27T10:51:31.553Z,103160.88
2023-02-27T10:54:14.671Z,103160.66
2023-02-27T10:56:44.634Z,103161.69
2023-02-27T10:59:41.751Z,103160.22
2023-02-27T11:02:17.408Z,103162.72
2023-02-27T11:04:54.054Z,103155.19
2023-02-27T11:07:34.851Z,103154.16
2023-02-27T11:10:15.482Z,103152.88
2023-02-27T11:12:43.052Z,103145.16
2023-02-27T11:15:15.891Z,103157.31
2023-02-27T11:17:43.737Z,103145.38
2023-02-27T11:20:35.575Z,103133.69
2023-02-27T11:23:11.733Z,103140.16
2023-02-27T11:25:38.404Z,103145.59
2023-02-27T11:28:37.476Z,103135.34
2023-02-27T11:31:07.557Z,103131.56
2023-02-27T11:33:39.008Z,103126.97
2023-02-27T11:36:06.432Z,103123.41
2023-02-27T11:38:34.744Z,103133.44
2023-02-27T11:41:05.186Z,103123.41
2023-02-27T11:43:36.672Z,103122.38
2023-02-27T11:46:32.968Z,103111.50
2023-02-27T11:48:58.396Z,103107.97
2023-02-27T11:51:33.631Z,103121.31
2023-02-27T11:54:00.108Z,103120.25
2023-02-27T11:56:53.793Z,103106.91
2023-02-27T11:59:31.790Z,103101.22
2023-02-27T12:02:46.993Z,103100.41
2023-02-27T12:05:26.204Z,103102.06
2023-02-27T12:08:13.438Z,103102.06
2023-02-27T12:10:50.255Z,103092.66
2023-02-27T12:13:24.912Z,103088.88
2023-02-27T12:16:00.626Z,103096.81
2023-02-27T12:18:33.346Z,103092.63
2023-02-27T12:21:09.575Z,103084.84
2023-02-27T12:24:12.502Z,103087.16
2023-02-27T12:26:52.438Z,103079.16
2023-02-27T12:29:30.797Z,103084.34
2023-02-27T12:32:18.906Z,103084.53
2023-02-27T12:34:51.081Z,103067.16
2023-02-27T12:37:26.060Z,103070.03
2023-02-27T12:39:56.139Z,103070.03
2023-02-27T12:42:38.081Z,103059.00
2023-02-27T12:45:22.746Z,103061.47
2023-02-27T12:48:16.936Z,103069.66
2023-02-27T12:51:21.558Z,103062.94
2023-02-27T12:53:57.330Z,103058.75
2023-02-27T12:56:30.399Z,103048.94
2023-02-27T12:59:24.298Z,103059.81
2023-02-27T13:02:19.671Z,103053.72
2023-02-27T13:04:55.993Z,103065.66
2023-02-27T13:07:33.583Z,103059.16
2023-02-27T13:10:11.492Z,103064.44
2023-02-27T13:12:48.922Z,103060.66
2023-02-27T13:15:21.722Z,103065.03
2023-02-27T13:18:26.407Z,103061.28
2023-02-27T13:21:07.538Z,103053.72
2023-02-27T13:24:04.770Z,103065.22
2023-02-27T13:27:00.434Z,103043.63
2023-02-27T13:29:38.125Z,103043.19
2023-02-27T13:32:32.725Z,103045.66
2023-02-27T13:35:17.343Z,103042.75
2023-02-27T13:38:05.348Z,103056.09
2023-02-27T13:40:40.429Z,103046.88
2023-02-27T13:43:51.711Z,103053.16
2023-02-27T13:46:25.718Z,103048.56
2023-02-27T13:49:28.188Z,103041.00
2023-02-27T13:51:59.386Z,103047.06
2023-02-27T13:54:32.519Z,103046.81
2023-02-27T13:56:59.021Z,103049.34
2023-02-27T13:59:31.444Z,103041.75
2023-02-27T14:02:03.251Z,103046.16
2023-02-27T14:04:33.056Z,103044.25
2023-02-27T14:07:11.394Z,103032.94
2023-02-27T14:09:41.737Z,103044.44
2023-02-27T14:12:42.612Z,103038.75
2023-02-27T14:15:23.020Z,103044.00
2023-02-27T14:18:34.325Z,103032.03
2023-02-27T14:21:01.052Z,103039.13
2023-02-27T14:23:28.295Z,103040.78
2023-02-27T14:26:05.126Z,103038.69
2023-02-27T14:28:37.589Z,103036.78
2023-02-27T14:31:07.561Z,103048.75
2023-02-27T14:33:41.968Z,103048.75
2023-02-27T14:36:16.430Z,103047.09
2023-02-27T14:38:43.230Z,103042.69
2023-02-27T14:41:27.024Z,103044.38
2023-02-27T14:43:57.404Z,103053.81
2023-02-27T14:46:34.612Z,103038.94
2023-02-27T14:49:05.624Z,103038.94
2023-02-27T14:51:34.692Z,103047.09
2023-02-27T14:54:02.985Z,103047.91
2023-02-27T14:56:30.112Z,103043.75
2023-02-27T14:59:04.317Z,103040.19
2023-02-27T15:01:36.194Z,103038.06
2023-02-27T15:04:05.755Z,103038.06
2023-02-27T15:06:40.450Z,103033.47
2023-02-27T15:09:07.617Z,103030.75
2023-02-27T15:11:35.023Z,103039.75
2023-02-27T15:14:06.299Z,103036.78
2023-02-27T15:16:39.111Z,103030.28
2023-02-27T15:19:19.971Z,103029.25
2023-02-27T15:21:52.445Z,103034.69
2023-02-27T15:24:35.275Z,103031.72
2023-02-27T15:27:16.397Z,103031.50
2023-02-27T15:29:49.410Z,103034.47
2023-02-27T15:32:28.833Z,103045.09
2023-02-27T15:34:57.874Z,103047.81
2023-02-27T15:37:30.858Z,103033.78
2023-02-27T15:39:59.343Z,103038.38
2023-02-27T15:42:36.408Z,103031.88
2023-02-27T15:45:05.359Z,103037.13
2023-02-27T15:47:33.217Z,103035.47
2023-02-27T15:50:31.469Z,103039.22
2023-02-27T15:53:13.944Z,103034.38
2023-02-27T15:55:49.391Z,103036.50
2023-02-27T15:58:28.377Z,103036.50
2023-02-27T16:01:19.581Z,103044.44
2023-02-27T16:04:13.772Z,103045.28
2023-02-27T16:06:41.510Z,103043.63
2023-02-27T16:09:23.156Z,103047.75
2023-02-27T16:11:50.461Z,103043.63
2023-02-27T16:14:52.641Z,103042.56
2023-02-27T16:17:29.398Z,103034.59
2023-02-27T16:19:58.399Z,103032.75
2023-02-27T16:22:26.083Z,103031.06
2023-02-27T16:24:53.413Z,103043.00
2023-02-27T16:27:24.508Z,103051.16
2023-02-27T16:29:52.837Z,103050.34
2023-02-27T16:32:26.416Z,103052.22
2023-02-27T16:35:07.434Z,103051.16
2023-02-27T16:37:41.355Z,103045.09
2023-02-27T16:40:26.048Z,103047.00
2023-02-27T16:42:52.974Z,103047.81
2023-02-27T16:45:22.315Z,103045.34
2023-02-27T16:47:51.023Z,103037.78
2023-02-27T16:50:26.455Z,103045.09
2023-02-27T16:52:53.440Z,103046.16
2023-02-27T16:55:20.570Z,103047.00
2023-02-27T16:57:47.508Z,103047.00
2023-02-27T17:00:15.548Z,103039.91
2023-02-27T17:02:42.984Z,103052.69
2023-02-27T17:05:10.821Z,103040.97
2023-02-27T17:07:37.868Z,103055.41
2023-02-27T17:10:04.817Z,103044.50
2023-02-27T17:12:31.368Z,103045.56
2023-02-27T17:14:57.916Z,103055.41
2023-02-27T17:17:24.494Z,103053.75
2023-02-27T17:19:51.045Z,103066.53
2023-02-27T17:22:17.702Z,103055.63
2023-02-27T17:24:44.376Z,103062.13
2023-02-27T17:27:10.974Z,103072.41
2023-02-27T17:29:39.032Z,103062.34
2023-02-27T17:32:06.477Z,103062.13
2023-02-27T17:34:33.058Z,103080.13
2023-02-27T17:36:59.562Z,103066.72
2023-02-27T17:39:26.148Z,103077.63
2023-02-27T17:41:54.436Z,103075.13
2023-02-27T17:44:21.489Z,103080.56
2023-02-27T17:46:48.237Z,103085.19
2023-02-27T17:49:14.818Z,103089.56
2023-02-27T17:51:41.392Z,103089.75
2023-02-27T17:54:08.208Z,103081.59
2023-02-27T17:56:36.750Z,103082.66
2023-02-27T17:59:03.616Z,103087.28
2023-02-27T18:01:30.262Z,103090.00
2023-02-27T18:03:57.178Z,103093.78
2023-02-27T18:06:24.244Z,103093.78
2023-02-27T18:08:51.109Z,103088.56
2023-02-27T18:11:20.034Z,103094.81
2023-02-27T18:13:47.659Z,103099.44
2023-02-27T18:16:15.046Z,103097.53
2023-02-27T18:18:42.832Z,103101.13
2023-02-27T18:21:17.562Z,103102.16
2023-02-27T18:23:44.255Z,103104.88
2023-02-27T18:26:28.908Z,103108.44
2023-02-27T18:29:00.197Z,103116.81
2023-02-27T18:31:33.764Z,103108.66
2023-02-27T18:34:01.139Z,103109.72
2023-02-27T18:36:29.392Z,103117.06
2023-02-27T18:38:56.302Z,103121.66
2023-02-27T18:41:23.059Z,103117.88
2023-02-27T18:43:50.139Z,103112.66
2023-02-27T18:46:17.360Z,103119.38
2023-02-27T18:48:44.989Z,103118.31
2023-02-27T18:51:14.596Z,103119.16
2023-02-27T18:53:44.243Z,103121.03
2023-02-27T18:56:11.440Z,103138.44
2023-02-27T18:58:38.247Z,103129.22
2023-02-27T19:01:07.453Z,103131.09
2023-02-27T19:03:35.624Z,103120.41
2023-02-27T19:06:03.682Z,103123.38
2023-02-27T19:08:30.474Z,103128.59
2023-02-27T19:10:57.540Z,103119.84
2023-02-27T19:13:27.353Z,103115.22
2023-02-27T19:15:54.688Z,103112.50
2023-02-27T19:18:21.285Z,103114.38
2023-02-27T19:20:48.088Z,103122.78
2023-02-27T19:23:14.628Z,103121.72
2023-02-27T19:25:42.086Z,103133.03
2023-02-27T19:28:11.374Z,103130.09
2023-02-27T19:30:41.042Z,103139.94
2023-02-27T19:33:07.669Z,103141.81
2023-02-27T19:35:34.294Z,103144.75
2023-02-27T19:38:00.996Z,103142.03
2023-02-27T19:40:28.201Z,103147.47
2023-02-27T19:42:55.315Z,103147.69
2023-02-27T19:45:23.165Z,103150.63
2023-02-27T19:47:49.835Z,103137.84
2023-02-27T19:50:16.726Z,103146.00
2023-02-27T19:52:43.336Z,103140.56
2023-02-27T19:55:10.218Z,103132.66
2023-02-27T19:57:37.261Z,103145.19
2023-02-27T20:00:09.831Z,103148.16
2023-02-27T20:02:36.355Z,103139.97
2023-02-27T20:05:03.195Z,103142.06
2023-02-27T20:07:30.438Z,103144.78
2023-02-27T20:09:57.341Z,103142.91
2023-02-27T20:12:24.111Z,103140.19
2023-02-27T20:14:50.626Z,103144.78
2023-02-27T20:17:17.805Z,103144.19
2023-02-27T20:19:44.379Z,103149.41
2023-02-27T20:22:13.802Z,103142.53
2023-02-27T20:24:40.425Z,103140.84
2023-02-27T20:27:07.256Z,103147.97
2023-02-27T20:29:33.979Z,103139.81
2023-02-27T20:32:00.718Z,103149.00
2023-02-27T20:34:27.386Z,103146.28
2023-02-27T20:36:55.328Z,103145.47
2023-02-27T20:39:22.626Z,103141.09
2023-02-27T20:41:49.308Z,103157.41
2023-02-27T20:44:15.919Z,103139.44
2023-02-27T20:46:43.782Z,103136.91
2023-02-27T20:49:14.412Z,103146.13
2023-02-27T20:51:41.356Z,103146.13
2023-02-27T20:54:11.547Z,103144.25
2023-02-27T20:56:41.273Z,103152.63
2023-02-27T20:59:11.734Z,103147.41
2023-02-27T21:01:38.716Z,103148.47
2023-02-27T21:04:05.627Z,103148.47
2023-02-27T21:06:32.521Z,103152.00
2023-02-27T21:09:02.657Z,103171.88
2023-02-27T21:11:31.385Z,103160.16
2023-02-27T21:14:02.348Z,103164.16
2023-02-27T21:16:28.900Z,103157.88
2023-02-27T21:18:56.745Z,103166.28
2023-02-27T21:21:29.434Z,103167.53
2023-02-27T21:23:57.186Z,103169.41
2023-02-27T21:26:27.340Z,103167.53
2023-02-27T21:28:59.858Z,103167.94
2023-02-27T21:31:29.212Z,103163.56
2023-02-27T21:33:58.860Z,103160.25
2023-02-27T21:36:30.531Z,103156.88
2023-02-27T21:39:02.955Z,103159.59
2023-02-27T21:41:29.937Z,103153.78
2023-02-27T21:44:01.793Z,103159.22
2023-02-27T21:46:29.303Z,103158.63
2023-02-27T21:48:56.164Z,103162.38
2023-02-27T21:51:37.048Z,103165.06
2023-02-27T21:54:05.756Z,103168.03
2023-02-27T21:56:32.499Z,103160.94
2023-02-27T21:59:02.141Z,103165.50
2023-02-27T22:01:29.750Z,103167.63
2023-02-27T22:03:57.150Z,103166.81
2023-02-27T22:06:25.878Z,103170.53
2023-02-27T22:08:54.749Z,103166.16
2023-02-27T22:11:21.923Z,103168.06
2023-02-27T22:13:48.468Z,103176.44
2023-02-27T22:16:15.087Z,103171.44
2023-02-27T22:18:41.797Z,103168.91
2023-02-27T22:21:18.151Z,103174.34
2023-02-27T22:23:46.348Z,103171.44
2023-02-27T22:26:16.747Z,103172.50
2023-02-27T22:28:43.763Z,103178.13
2023-02-27T22:31:12.616Z,103172.09
2023-02-27T22:33:40.654Z,103181.28
2023-02-27T22:36:10.039Z,103183.38
2023-02-27T22:38:36.980Z,103186.09
2023-02-27T22:41:05.606Z,103190.09
2023-02-27T22:43:32.660Z,103183.81
2023-02-27T22:45:59.218Z,103181.94
2023-02-27T22:48:25.789Z,103185.72
2023-02-27T22:51:03.028Z,103176.91
2023-02-27T22:53:39.267Z,103179.88
2023-02-27T22:56:07.783Z,103190.09
2023-02-27T22:58:37.229Z,103183.84
2023-02-27T23:01:14.023Z,103182.19
2023-02-27T23:03:43.106Z,103188.69
2023-02-27T23:06:15.398Z,103192.22
2023-02-27T23:08:42.847Z,103185.31
2023-02-27T23:11:11.116Z,103184.50
2023-02-27T23:13:38.459Z,103192.00
2023-02-27T23:16:13.388Z,103188.28
2023-02-27T23:18:50.640Z,103186.81
2023-02-27T23:21:20.258Z,103188.06
2023-02-27T23:23:47.709Z,103185.16
2023-02-27T23:26:15.137Z,103188.47
2023-02-27T23:28:42.943Z,103183.50
2023-02-27T23:31:09.794Z,103189.13
2023-02-27T23:33:36.534Z,103189.13
2023-02-27T23:36:03.577Z,103187.66
2023-02-27T23:38:30.618Z,103195.81
2023-02-27T23:40:57.505Z,103196.84
2023-02-27T23:43:42.970Z,103194.97
2023-02-27T23:46:11.645Z,103194.16
2023-02-27T23:48:38.463Z,103207.13
2023-02-27T23:51:06.409Z,103200.00
2023-02-27T23:53:34.196Z,103193.13
2023-02-27T23:56:00.960Z,103201.47
2023-02-27T23:58:27.526Z,103203.38
